Poulsbo, WA

10:42 AM PDT on August 23, 2014 (GMT -0700)
Central Market Poulsbo | Change Station
CLOSE
Current Station
Personal Weather Station
Location: Poulsbo, WA
Elevation: 68 ft
Nearby Weather Stations

Elev 68 ft 47.75 °N, 122.64 °W | Updated 7 seconds ago

Clear
Clear
70.8 °F
Feels Like 75 °F
N
0.0
Wind Variable Wind from SW
Gusts 2.0 mph

Today
High -- | Low -- °F
--% Chance of Precip.
Yesterday
High -- | Low -- °F
Precip. -- in
6:16 AM 8:08 PM
Waning Crescent, 3% visible
Pressure 30.18 in
Visibility 10.0 miles
Clouds Clear
Heat Index 75 °F
Dew Point 59 °F
Humidity 67%
Rainfall 0.00 in
Snow Depth Not available.
UV 5 out of 12
Pollen 3.60 out of 12
Air Quality Not available.
Flu Activity Not available.
METAR KPWT 231735Z 00000KT 10SM CLR 22/14 A3018 RMK AO1

More Conditions Fewer Conditions

Pressure 30.18 in
Visibility 10.0 miles
Clouds Clear
Heat Index 75 °F
Dew Point 59 °F
Humidity 67%
Rainfall 0.00 in
Snow Depth Not available.
UV 5 out of 12
Pollen 3.60 out of 12
Air Quality Not available.
Flu Activity Not available.
METAR KPWT 231735Z 00000KT 10SM CLR 22/14 A3018 RMK AO1

More Conditions Fewer Conditions

10-Day Weather Forecast

Almanac

Astronomy

Aug. 23, 2014 Rise Set
Actual Time 6:16 AM PDT 8:08 PM PDT
Civil Twilight 5:43 AM PDT 8:41 PM PDT
Nautical Twilight 5:03 AM PDT 9:21 PM PDT
Astronomical Twilight 4:18 AM PDT 10:05 PM PDT
Moon 4:35 AM PDT 6:56 PM PDT
Length of Visible Light 14h 57m
Length of Day
13h 51m
Tomorrow will be 3m 14s shorter.
Waning Crescent, 3% of the Moon is Illuminated
Today
Waning Crescent
Aug 25
New
Sep 2
First Quarter
Sep 8
Full
Sep 15
Last Quarter

Today's Extremes

State Highs State Lows

Community

WunderPhotos

Upload Photos

1,746,537 photos uploaded!

WunderBlogs® & News

By Dr. Jeff Masters
Director of Meteorology, Weather Underground
By Kari Strenfel
Meteorologist, Weather Underground
By Christopher C. Burt
Weather Historian, Weather Underground
August 23, 2014
August 23, 2014
August 23, 2014

Nearby

Snow Depth

Station Depth Elevation
Dungeness 0 in 4100 ft
Alpine Meadows 0 in 3500 ft
Burnt Mountain 0 in 4200 ft
Olallie Meadows 2 in 3700 ft
Stampede Pass 1 in 3860 ft

Earthquake Activity

City Distance Mag. Time & Date
No recent earthquake activity has been reported nearby.
Minimum magnitude displayed is 2.5.

Coastal Water Temperatures

Place Temperature
Port Townsend, WA 53.1 °F
Seattle, WA 57.0 °F
Friday Harbor, WA 54.0 °F
Tacoma, WA 57.0 °F

Nearby Weather Stations